Time;durP1;ratioP1;P1;durP2;ratioP2;P2;SDS_P1;SDS_P2;PMS_P1;PMS_P2;Temp;Humidity;BMP_temperature;BMP_pressure;BME280_temperature;BME280_humidity;BME280_pressure;Samples;Min_cycle;Max_cycle;Signal;HPM_P1;HPM_P2
2022/02/23 00:00:28;;;;;;;6.37;1.70;;;7.50;1.00;7.80;100950.00;;;;5022917;28;20469;-79
2022/02/23 00:02:57;;;;;;;6.63;2.40;;;7.50;1.00;7.80;100952.00;;;;5025609;28;20474;-80
2022/02/23 00:05:26;;;;;;;6.20;1.93;;;7.50;1.00;7.80;100955.00;;;;5020684;28;20455;-79
2022/02/23 00:07:54;;;;;;;13.33;3.40;;;7.50;1.00;7.80;100941.00;;;;5052210;28;20445;-78
2022/02/23 00:10:22;;;;;;;4.03;1.83;;;7.50;1.00;7.70;100982.00;;;;5033326;28;20450;-80
2022/02/23 00:12:51;;;;;;;10.03;2.73;;;7.40;1.00;7.60;100961.00;;;;5042714;28;20473;-79
2022/02/23 00:15:21;;;;;;;6.90;2.03;;;7.40;1.00;7.60;100981.00;;;;5035648;28;20460;-78
2022/02/23 00:17:50;;;;;;;5.43;2.03;;;7.30;1.00;7.60;100990.00;;;;5030953;28;22453;-80
2022/02/23 00:20:19;;;;;;;8.30;2.50;;;7.30;1.00;7.60;100978.00;;;;5058085;28;20471;-78
2022/02/23 00:22:48;;;;;;;10.47;2.73;;;7.50;1.00;7.60;100989.00;;;;5040565;28;20558;-77
2022/02/23 00:25:17;;;;;;;5.77;2.00;;;7.30;1.00;7.60;100997.00;;;;5035026;28;20517;-79
2022/02/23 00:27:46;;;;;;;12.20;2.03;;;7.50;1.00;7.60;101007.00;;;;5036585;28;21464;-79
2022/02/23 00:30:14;;;;;;;7.37;2.20;;;7.30;1.00;7.70;100998.00;;;;5035626;28;20472;-79
2022/02/23 00:32:44;;;;;;;6.30;2.20;;;7.30;1.00;7.70;100996.00;;;;5028523;28;20851;-80
2022/02/23 00:35:12;;;;;;;10.77;2.80;;;7.40;1.00;7.70;101031.00;;;;5044995;28;20453;-79
2022/02/23 00:37:41;;;;;;;9.83;2.90;;;7.40;1.00;7.70;101027.00;;;;5024166;28;20476;-80
2022/02/23 00:40:11;;;;;;;7.53;2.23;;;7.40;1.00;7.60;101017.00;;;;5022451;28;20466;-78
2022/02/23 00:42:39;;;;;;;8.27;2.20;;;7.30;1.00;7.60;101019.00;;;;5024805;28;20579;-78
2022/02/23 00:45:09;;;;;;;11.97;2.93;;;7.40;1.00;7.60;101033.00;;;;5025727;28;20988;-79
2022/02/23 00:47:38;;;;;;;13.33;2.67;;;7.40;1.00;7.60;101056.00;;;;5032788;28;20458;-80
2022/02/23 00:50:09;;;;;;;8.33;2.80;;;7.40;1.00;7.60;101057.00;;;;5033193;28;20468;-80
2022/02/23 00:52:38;;;;;;;7.00;2.10;;;7.30;1.00;7.50;101066.00;;;;5050951;28;20565;-78
2022/02/23 00:55:10;;;;;;;11.30;2.90;;;7.20;1.00;7.60;101066.00;;;;5042500;28;20476;-79
2022/02/23 00:57:39;;;;;;;6.70;1.93;;;7.20;1.00;7.50;101058.00;;;;5036624;28;20457;-79
2022/02/23 01:00:09;;;;;;;11.00;3.03;;;7.20;1.00;7.60;101055.00;;;;5038700;28;20456;-80
2022/02/23 01:02:39;;;;;;;9.60;2.50;;;7.30;1.00;7.50;101054.00;;;;5044189;28;20481;-79
2022/02/23 01:05:09;;;;;;;8.47;2.63;;;7.20;1.00;7.50;101068.00;;;;5038041;28;20481;-78
2022/02/23 01:07:38;;;;;;;5.80;2.40;;;7.20;1.00;7.60;101081.00;;;;5042001;28;20448;-79
2022/02/23 01:10:09;;;;;;;11.00;2.87;;;7.30;1.00;7.50;101075.00;;;;5043272;28;20453;-79
2022/02/23 01:12:38;;;;;;;11.10;3.10;;;7.30;1.00;7.50;101105.00;;;;5034596;28;20510;-78
2022/02/23 01:15:08;;;;;;;7.50;2.47;;;7.20;1.00;7.50;101084.00;;;;5053221;28;20467;-75
2022/02/23 01:17:38;;;;;;;15.20;3.73;;;7.20;1.00;7.50;101076.00;;;;5034911;28;20448;-77
2022/02/23 01:20:10;;;;;;;9.10;3.07;;;7.40;1.00;7.40;101101.00;;;;5018911;28;20996;-78
2022/02/23 01:22:38;;;;;;;12.00;4.00;;;7.10;1.00;7.40;101084.00;;;;5018641;28;20522;-76
2022/02/23 01:25:08;;;;;;;11.37;3.33;;;7.10;1.00;7.40;101114.00;;;;5020839;28;20491;-78
2022/02/23 01:27:37;;;;;;;10.50;3.50;;;7.10;1.00;7.50;101117.00;;;;5017665;28;20464;-79
2022/02/23 01:30:08;;;;;;;16.60;5.00;;;7.10;1.00;7.50;101093.00;;;;5015859;28;20552;-79
2022/02/23 01:32:36;;;;;;;12.60;3.80;;;7.20;1.00;7.60;101115.00;;;;5028058;28;20469;-79
2022/02/23 01:35:05;;;;;;;13.03;4.40;;;7.20;1.00;7.50;101111.00;;;;5047676;28;20476;-78
2022/02/23 01:37:35;;;;;;;11.97;4.87;;;7.20;1.00;7.40;101082.00;;;;5046633;28;20487;-79
2022/02/23 01:40:06;;;;;;;14.90;4.57;;;7.10;1.00;7.50;101103.00;;;;5028725;28;20453;-79
2022/02/23 01:42:35;;;;;;;19.80;4.07;;;7.10;1.00;7.50;101096.00;;;;5041846;28;20489;-78
2022/02/23 01:45:07;;;;;;;14.43;4.23;;;7.20;1.00;7.50;101092.00;;;;5036482;28;20528;-78
2022/02/23 01:47:36;;;;;;;10.90;3.60;;;7.20;1.00;7.50;101119.00;;;;5017493;28;20526;-75
2022/02/23 01:50:11;;;;;;;10.73;3.40;;;7.10;1.00;7.50;101121.00;;;;5020242;28;20446;-81
2022/02/23 01:52:40;;;;;;;11.47;4.33;;;7.10;1.00;7.40;101109.00;;;;5011770;28;20477;-78
2022/02/23 01:55:10;;;;;;;12.27;4.20;;;7.10;1.00;7.40;101099.00;;;;5038179;28;20460;-77
2022/02/23 01:57:39;;;;;;;15.30;4.00;;;7.50;1.00;7.50;101112.00;;;;5023893;28;20456;-80
2022/02/23 02:00:14;;;;;;;9.63;4.20;;;7.10;1.00;7.50;101103.00;;;;5018066;28;20461;-81
2022/02/23 02:02:43;;;;;;;13.87;3.83;;;7.20;1.00;7.50;101088.00;;;;5041404;28;21022;-80
2022/02/23 02:05:12;;;;;;;14.17;4.93;;;7.30;1.00;7.50;101128.00;;;;5018690;28;20485;-81
2022/02/23 02:07:42;;;;;;;12.17;3.77;;;7.20;1.00;7.60;101125.00;;;;5023401;28;20461;-80
2022/02/23 02:10:12;;;;;;;17.00;3.70;;;7.20;1.00;7.50;101133.00;;;;5025403;28;21221;-80
2022/02/23 02:12:41;;;;;;;16.10;4.93;;;7.20;1.00;7.40;101138.00;;;;5019205;28;20485;-80
2022/02/23 02:15:11;;;;;;;10.30;4.30;;;7.10;1.00;7.50;101147.00;;;;5019698;28;20480;-81
2022/02/23 02:17:41;;;;;;;12.57;4.27;;;7.50;1.00;7.40;101140.00;;;;5020004;28;20452;-81
2022/02/23 02:20:11;;;;;;;10.40;4.57;;;7.50;1.00;7.40;101141.00;;;;5043625;28;20518;-79
2022/02/23 02:22:40;;;;;;;9.67;3.67;;;7.00;1.00;7.40;101145.00;;;;5026183;28;20484;-81
2022/02/23 02:25:10;;;;;;;16.80;4.10;;;7.00;1.00;7.30;101150.00;;;;5025685;28;20475;-81
2022/02/23 02:27:38;;;;;;;14.30;3.87;;;7.10;1.00;7.40;101152.00;;;;5034042;28;20457;-82
2022/02/23 02:30:08;;;;;;;12.83;4.23;;;7.00;1.00;7.40;101128.00;;;;5024862;28;20493;-81
2022/02/23 02:32:36;;;;;;;10.57;4.13;;;7.00;1.00;7.40;101133.00;;;;5019898;28;20472;-79
2022/02/23 02:35:05;;;;;;;17.27;3.97;;;7.00;1.00;7.40;101168.00;;;;5019981;28;20555;-82
2022/02/23 02:37:34;;;;;;;15.53;4.37;;;7.00;1.00;7.30;101168.00;;;;5034735;28;20543;-79
2022/02/23 02:40:05;;;;;;;14.37;4.40;;;7.00;1.00;7.30;101153.00;;;;5019996;28;20457;-80
2022/02/23 02:42:33;;;;;;;13.13;4.57;;;6.90;1.00;7.30;101169.00;;;;5024624;28;20572;-80
2022/02/23 02:45:01;;;;;;;13.10;4.23;;;6.90;1.00;7.30;101179.00;;;;5017466;28;20489;-80
2022/02/23 02:47:29;;;;;;;14.10;4.00;;;6.90;1.00;7.30;101187.00;;;;5019152;28;20975;-80
2022/02/23 02:49:58;;;;;;;12.17;3.77;;;6.90;1.00;7.30;101178.00;;;;5018074;28;20457;-83
2022/02/23 02:52:26;;;;;;;16.57;4.60;;;6.90;1.00;7.30;101187.00;;;;5019293;28;20575;-79
2022/02/23 02:54:54;;;;;;;11.13;3.90;;;6.90;1.00;7.30;101180.00;;;;5019412;28;20460;-83
2022/02/23 02:57:26;;;;;;;13.30;3.83;;;6.90;1.00;7.20;101175.00;;;;5016355;28;20461;-77
2022/02/23 02:59:54;;;;;;;10.33;3.67;;;6.90;1.00;7.30;101204.00;;;;5023815;28;20460;-81
2022/02/23 03:02:23;;;;;;;10.60;3.60;;;6.80;1.00;7.30;101204.00;;;;5020050;28;20477;-80
2022/02/23 03:04:51;;;;;;;10.03;4.20;;;7.10;1.00;7.30;101213.00;;;;5016487;28;20473;-83
2022/02/23 03:07:19;;;;;;;9.27;3.33;;;6.90;1.00;7.30;101207.00;;;;5016812;28;21241;-83
2022/02/23 03:09:47;;;;;;;15.53;3.80;;;6.90;1.00;7.30;101205.00;;;;5017946;28;20536;-83
2022/02/23 03:12:16;;;;;;;14.23;4.60;;;6.90;1.00;7.20;101214.00;;;;5019257;28;20473;-80
2022/02/23 03:14:45;;;;;;;16.70;4.93;;;6.90;1.00;7.20;101224.00;;;;5023108;28;20449;-79
2022/02/23 03:17:14;;;;;;;16.10;3.80;;;6.80;1.00;7.30;101223.00;;;;5032056;28;20823;-79
2022/02/23 03:19:42;;;;;;;10.20;3.70;;;6.80;1.00;7.20;101201.00;;;;5018367;28;20852;-79
2022/02/23 03:22:11;;;;;;;11.70;2.97;;;6.80;1.00;7.20;101235.00;;;;5022769;28;20481;-83
2022/02/23 03:24:39;;;;;;;10.07;3.03;;;6.70;1.00;7.30;101212.00;;;;5019975;28;21012;-81
2022/02/23 03:27:07;;;;;;;6.90;3.07;;;7.30;1.00;7.10;101234.00;;;;5018643;28;20449;-82
2022/02/23 03:29:36;;;;;;;11.00;3.30;;;6.80;1.00;7.20;101233.00;;;;5018516;28;20474;-81
2022/02/23 03:32:08;;;;;;;18.43;4.33;;;6.70;1.00;7.20;101239.00;;;;5026460;28;20472;-82
2022/02/23 03:34:43;;;;;;;9.90;2.77;;;6.70;1.00;7.10;101259.00;;;;5017198;28;20576;-79
2022/02/23 03:37:19;;;;;;;13.97;3.90;;;6.70;1.00;7.10;101137.00;;;;5041976;28;20461;-79
2022/02/23 03:39:48;;;;;;;10.20;3.37;;;6.70;1.00;217.30;159760.00;;;;5022673;28;20484;-83
2022/02/23 03:42:17;;;;;;;10.63;4.40;;;7.00;1.00;7.20;101265.00;;;;5018550;28;20994;-79
2022/02/23 03:44:46;;;;;;;13.73;4.60;;;6.70;1.00;7.10;101251.00;;;;5017119;28;20563;-81
2022/02/23 03:47:15;;;;;;;10.73;3.83;;;6.60;1.00;7.20;101245.00;;;;5016624;28;20459;-81
2022/02/23 03:49:44;;;;;;;15.43;3.20;;;6.70;1.00;7.20;101238.00;;;;5017357;28;20465;-79
2022/02/23 03:52:12;;;;;;;16.77;4.10;;;6.70;1.00;7.10;101246.00;;;;5013023;28;20560;-81
2022/02/23 03:54:40;;;;;;;13.00;3.47;;;6.70;1.00;7.20;101263.00;;;;5031580;28;20466;-81
2022/02/23 03:57:08;;;;;;;14.40;4.40;;;6.80;1.00;7.20;101274.00;;;;5030652;28;20451;-79
2022/02/23 03:59:37;;;;;;;13.40;4.30;;;6.80;1.00;7.20;101288.00;;;;5020504;28;20978;-81
2022/02/23 04:02:06;;;;;;;12.73;3.67;;;6.80;1.00;7.20;101276.00;;;;5014677;28;20484;-81
2022/02/23 04:04:36;;;;;;;11.63;3.50;;;6.80;1.00;7.30;101290.00;;;;5018565;28;20580;-81
2022/02/23 04:07:05;;;;;;;12.87;3.60;;;7.10;1.00;7.30;101286.00;;;;5012833;28;20569;-81
2022/02/23 04:09:33;;;;;;;11.40;2.90;;;6.80;1.00;7.30;101256.00;;;;5015453;28;20460;-81
2022/02/23 04:12:02;;;;;;;16.93;3.70;;;6.90;1.00;7.30;101295.00;;;;5030670;28;20483;-79
2022/02/23 04:14:30;;;;;;;11.17;3.40;;;6.90;1.00;7.30;101296.00;;;;5033534;28;20843;-80
2022/02/23 04:16:59;;;;;;;15.90;4.10;;;6.90;1.00;7.30;101320.00;;;;5033756;28;20461;-80
2022/02/23 04:19:27;;;;;;;7.83;3.23;;;7.30;1.00;7.20;101319.00;;;;5018047;28;20944;-81
2022/02/23 04:21:57;;;;;;;15.63;3.70;;;6.90;1.00;7.20;101303.00;;;;5014640;28;20491;-80
2022/02/23 04:24:25;;;;;;;10.80;3.67;;;6.90;1.00;7.30;101345.00;;;;5030959;28;20462;-80
2022/02/23 04:26:54;;;;;;;13.57;3.60;;;6.80;1.00;7.20;101343.00;;;;5018262;28;20472;-80
2022/02/23 04:29:22;;;;;;;12.23;3.83;;;6.80;1.00;7.20;101351.00;;;;5031515;28;20453;-80
2022/02/23 04:31:51;;;;;;;11.47;3.60;;;6.80;1.00;7.20;101355.00;;;;5020636;28;20922;-80
2022/02/23 04:34:20;;;;;;;11.07;3.43;;;6.80;1.00;7.10;101358.00;;;;5029217;28;20535;-79
2022/02/23 04:36:51;;;;;;;11.50;3.30;;;6.80;1.00;7.20;101345.00;;;;5036793;28;20481;-80
2022/02/23 04:39:29;;;;;;;14.50;4.43;;;6.80;1.00;7.20;101358.00;;;;5020238;28;20456;-81
2022/02/23 04:42:01;;;;;;;20.60;3.73;;;6.90;1.00;7.20;101380.00;;;;5016183;28;20482;-80
2022/02/23 04:44:30;;;;;;;10.27;3.30;;;6.90;1.00;7.10;101378.00;;;;5016287;28;20463;-79
2022/02/23 04:46:58;;;;;;;18.53;4.53;;;6.80;1.00;7.10;101397.00;;;;5014563;28;20473;-80
2022/02/23 04:49:27;;;;;;;7.83;3.40;;;6.70;1.00;7.00;101361.00;;;;5017259;28;20545;-81
2022/02/23 04:51:57;;;;;;;12.40;3.93;;;6.70;1.00;7.10;101393.00;;;;5024768;28;20469;-80
2022/02/23 04:54:26;;;;;;;10.80;3.83;;;6.80;1.00;7.00;101395.00;;;;5020317;28;20961;-80
2022/02/23 04:56:58;;;;;;;10.00;2.77;;;6.60;1.00;7.00;101396.00;;;;5022672;28;20449;-80
2022/02/23 04:59:26;;;;;;;12.47;2.63;;;6.70;1.00;7.00;101388.00;;;;5012207;28;21280;-81
2022/02/23 05:01:54;;;;;;;12.03;3.77;;;6.60;1.00;7.00;101368.00;;;;5018889;28;20941;-81
2022/02/23 05:04:23;;;;;;;13.03;3.70;;;6.60;1.00;7.00;101385.00;;;;5017066;28;20817;-79
2022/02/23 05:06:51;;;;;;;12.93;4.17;;;6.60;1.00;6.80;101393.00;;;;5020560;28;20480;-81
2022/02/23 05:09:19;;;;;;;9.30;3.13;;;6.50;1.00;6.80;101399.00;;;;5022275;28;20460;-80
2022/02/23 05:11:48;;;;;;;10.90;3.20;;;6.50;1.00;6.90;101409.00;;;;5019465;28;20473;-80
2022/02/23 05:14:18;;;;;;;9.50;3.50;;;6.50;1.00;6.80;101388.00;;;;5022037;28;20489;-79
2022/02/23 05:16:47;;;;;;;20.77;4.23;;;6.50;1.00;6.80;101397.00;;;;5024327;28;20455;-82
2022/02/23 05:19:15;;;;;;;22.40;4.20;;;6.50;1.00;6.80;101430.00;;;;5018035;28;20487;-78
2022/02/23 05:21:43;;;;;;;11.70;3.60;;;6.50;1.00;6.80;101422.00;;;;5050457;28;20481;-80
2022/02/23 05:24:16;;;;;;;14.47;3.80;;;6.50;1.00;6.80;101429.00;;;;5042788;28;20465;-79
2022/02/23 05:26:44;;;;;;;11.57;3.27;;;6.40;1.00;6.80;101427.00;;;;5059272;28;20567;-80
2022/02/23 05:29:12;;;;;;;12.40;3.80;;;6.40;1.00;6.80;101434.00;;;;5041771;28;20554;-78
2022/02/23 05:31:42;;;;;;;12.13;3.90;;;6.50;1.00;6.80;101437.00;;;;5035252;28;20457;-79
2022/02/23 05:34:10;;;;;;;13.50;3.40;;;6.40;1.00;6.70;101425.00;;;;5024723;28;20467;-79
2022/02/23 05:36:39;;;;;;;12.00;3.07;;;6.40;1.00;6.70;101424.00;;;;5019851;28;20828;-80
2022/02/23 05:39:08;;;;;;;11.13;3.40;;;6.30;1.00;6.70;101433.00;;;;5032574;28;20462;-80
2022/02/23 05:41:37;;;;;;;10.70;3.53;;;6.40;1.00;6.80;101460.00;;;;5035659;28;20461;-80
2022/02/23 05:44:06;;;;;;;13.50;3.47;;;6.40;1.00;6.80;101441.00;;;;5034460;28;21647;-80
2022/02/23 05:46:35;;;;;;;14.27;5.53;;;6.40;1.00;6.80;101472.00;;;;5016531;28;20478;-80
2022/02/23 05:49:05;;;;;;;12.57;3.67;;;6.40;1.00;6.80;101461.00;;;;5020780;28;20463;-80
2022/02/23 05:51:38;;;;;;;13.53;3.67;;;6.40;1.00;6.80;101471.00;;;;5017758;28;20449;-80
2022/02/23 05:54:08;;;;;;;14.20;4.00;;;6.40;1.00;6.80;101481.00;;;;5019417;28;20452;-80
2022/02/23 05:56:37;;;;;;;12.47;3.90;;;6.30;1.00;6.70;101485.00;;;;5025661;28;20461;-79
2022/02/23 05:59:05;;;;;;;13.13;4.63;;;6.20;1.00;6.70;101459.00;;;;5019143;28;20465;-79
2022/02/23 06:01:34;;;;;;;15.37;4.63;;;6.20;1.00;6.70;101476.00;;;;5034434;28;20987;-81
2022/02/23 06:04:04;;;;;;;16.67;4.40;;;6.20;1.00;6.60;101474.00;;;;5026408;28;20492;-79
2022/02/23 06:06:33;;;;;;;12.17;4.00;;;6.20;1.00;6.60;101491.00;;;;5014831;28;20485;-80
2022/02/23 06:09:01;;;;;;;16.43;4.60;;;6.20;1.00;6.60;101491.00;;;;5019547;28;20450;-82
2022/02/23 06:11:29;;;;;;;9.23;3.97;;;6.60;1.00;6.60;101476.00;;;;5019954;28;20468;-79
2022/02/23 06:13:58;;;;;;;18.90;4.60;;;6.10;1.00;6.60;101511.00;;;;5024509;28;20466;-79
2022/02/23 06:16:27;;;;;;;13.10;5.17;;;6.50;1.00;6.60;101507.00;;;;5019821;28;20985;-79
2022/02/23 06:18:55;;;;;;;14.40;4.47;;;6.10;1.00;6.60;101514.00;;;;5017479;28;21390;-81
2022/02/23 06:21:26;;;;;;;12.30;4.43;;;6.10;1.00;6.60;101508.00;;;;5028929;28;20545;-81
2022/02/23 06:23:55;;;;;;;12.00;4.03;;;6.00;1.00;6.60;101513.00;;;;5047789;28;20524;-79
2022/02/23 06:26:24;;;;;;;19.53;4.90;;;6.10;1.00;6.50;101521.00;;;;5041230;28;20469;-81
2022/02/23 06:28:52;;;;;;;15.37;5.27;;;6.10;1.00;6.40;101507.00;;;;5029149;28;20456;-79
2022/02/23 06:31:23;;;;;;;10.20;4.60;;;6.00;1.00;6.50;101522.00;;;;5020999;28;21175;-79
2022/02/23 06:33:51;;;;;;;18.03;3.90;;;6.00;1.00;6.50;101520.00;;;;5029286;28;20475;-78
2022/02/23 06:36:20;;;;;;;12.17;3.50;;;6.40;1.00;6.60;101529.00;;;;5034492;28;20544;-78
2022/02/23 06:38:50;;;;;;;15.20;4.23;;;6.00;1.00;6.70;101511.00;;;;5030841;28;20457;-79
2022/02/23 06:41:22;;;;;;;15.93;4.00;;;6.20;1.00;6.60;101533.00;;;;5049177;28;20461;-80
2022/02/23 06:43:52;;;;;;;14.13;4.00;;;6.20;1.00;6.70;101527.00;;;;5048406;28;20463;-81
2022/02/23 06:46:22;;;;;;;13.90;4.60;;;6.30;1.00;6.80;101535.00;;;;5037155;28;20500;-79
2022/02/23 06:48:51;;;;;;;15.37;4.20;;;6.30;1.00;6.90;101524.00;;;;5032022;28;20533;-80
2022/02/23 06:51:20;;;;;;;14.33;4.83;;;6.40;1.00;6.90;101511.00;;;;5026636;28;20457;-81
2022/02/23 06:53:50;;;;;;;18.13;5.30;;;6.00;1.00;7.00;101541.00;;;;5020382;28;20477;-80
2022/02/23 06:56:19;;;;;;;17.70;5.63;;;6.40;1.00;6.90;101543.00;;;;5028147;28;20529;-80
2022/02/23 06:58:50;;;;;;;16.50;4.90;;;6.40;1.00;7.00;101544.00;;;;5033553;28;20466;-79
2022/02/23 07:01:21;;;;;;;16.53;4.27;;;6.50;1.00;7.00;101544.00;;;;5049927;28;20537;-80
2022/02/23 07:03:53;;;;;;;11.63;3.73;;;6.40;1.00;6.90;101545.00;;;;5047196;28;20478;-80
2022/02/23 07:06:21;;;;;;;13.03;4.30;;;6.40;1.00;7.00;101556.00;;;;5029284;28;20477;-80
2022/02/23 07:08:52;;;;;;;14.77;4.33;;;6.40;1.00;7.00;101558.00;;;;5030194;28;20586;-82
2022/02/23 07:11:20;;;;;;;11.23;4.03;;;6.30;1.00;7.00;101490.00;;;;5021065;28;20456;-80
2022/02/23 07:13:48;;;;;;;12.90;3.90;;;6.30;1.00;7.10;101542.00;;;;5017849;28;20497;-80
2022/02/23 07:16:17;;;;;;;13.10;4.47;;;6.70;1.00;7.10;101546.00;;;;5019634;28;20461;-80
2022/02/23 07:18:46;;;;;;;12.70;4.20;;;6.50;1.00;7.30;101559.00;;;;5017046;28;20445;-80
2022/02/23 07:21:14;;;;;;;10.87;4.70;;;6.60;1.00;7.30;101567.00;;;;5020935;28;20454;-81
2022/02/23 07:23:42;;;;;;;11.93;3.90;;;6.70;1.00;7.40;101576.00;;;;5018993;28;20527;-82
2022/02/23 07:26:14;;;;;;;19.13;4.57;;;6.90;1.00;7.40;101567.00;;;;5024572;28;21289;-79
2022/02/23 07:28:44;;;;;;;16.77;5.27;;;7.10;1.00;7.50;101580.00;;;;5041417;28;20493;-78
2022/02/23 07:31:15;;;;;;;14.70;4.90;;;6.90;1.00;7.60;101558.00;;;;5041832;28;20485;-79
2022/02/23 07:33:44;;;;;;;15.20;4.80;;;7.00;1.00;7.60;101577.00;;;;5050531;28;21836;-79
2022/02/23 07:36:12;;;;;;;9.93;4.20;;;7.10;1.00;7.70;101570.00;;;;5042810;28;20440;-79
2022/02/23 07:38:42;;;;;;;12.47;3.83;;;7.10;1.00;7.80;101589.00;;;;5060075;28;20476;-79
2022/02/23 07:41:19;;;;;;;10.80;4.30;;;7.20;1.00;7.80;101590.00;;;;5054166;28;20468;-81
2022/02/23 07:44:07;;;;;;;10.83;4.53;;;7.20;1.00;7.80;101594.00;;;;5049326;28;20472;-78
2022/02/23 07:46:35;;;;;;;11.30;4.43;;;7.30;1.00;8.00;101582.00;;;;5063141;28;20465;-79
2022/02/23 07:49:04;;;;;;;12.63;4.90;;;7.30;1.00;8.00;101599.00;;;;5056374;28;20446;-79
2022/02/23 07:51:32;;;;;;;11.43;4.87;;;7.50;1.00;8.00;101612.00;;;;5059183;28;20544;-78
2022/02/23 07:54:01;;;;;;;15.10;5.50;;;7.50;1.00;8.10;101590.00;;;;5046890;28;20437;-80
2022/02/23 07:56:30;;;;;;;13.67;4.73;;;7.70;1.00;8.10;101621.00;;;;5025255;28;20460;-80
2022/02/23 07:58:59;;;;;;;11.70;4.90;;;7.80;1.00;8.20;101602.00;;;;5021332;28;20449;-78
2022/02/23 08:01:30;;;;;;;11.07;4.47;;;7.60;1.00;8.30;101623.00;;;;5034350;28;20453;-81
2022/02/23 08:03:58;;;;;;;13.93;4.70;;;7.80;1.00;8.30;101620.00;;;;5020497;28;20457;-79
2022/02/23 08:06:27;;;;;;;14.03;3.87;;;7.80;1.00;8.30;101604.00;;;;5017930;28;20482;-79
2022/02/23 08:08:56;;;;;;;13.00;4.73;;;8.10;1.00;8.20;101603.00;;;;5013203;28;20850;-80
2022/02/23 08:11:26;;;;;;;17.63;4.90;;;7.70;1.00;8.30;101614.00;;;;5018317;28;20502;-80
2022/02/23 08:13:58;;;;;;;15.10;4.13;;;7.80;1.00;8.40;101628.00;;;;5016447;28;20449;-80
2022/02/23 08:19:31;;;;;;;16.73;4.70;;;7.90;1.00;8.30;101629.00;;;;5017274;28;20933;-79
2022/02/23 08:22:04;;;;;;;8.67;3.97;;;7.80;1.00;8.40;101630.00;;;;5018610;28;20493;-81
2022/02/23 08:24:35;;;;;;;11.93;4.53;;;7.90;1.00;8.50;101648.00;;;;5022772;28;20505;-83
2022/02/23 08:27:08;;;;;;;14.30;4.00;;;8.00;1.00;8.60;101624.00;;;;5023947;28;20472;-80
2022/02/23 08:29:38;;;;;;;12.33;4.23;;;8.10;1.00;8.60;101630.00;;;;5012022;28;20453;-80
2022/02/23 08:32:10;;;;;;;15.50;4.30;;;8.10;1.00;8.60;101634.00;;;;5016692;28;20504;-79
2022/02/23 08:34:41;;;;;;;9.40;3.93;;;8.10;1.00;8.70;101626.00;;;;5011500;28;20461;-80
2022/02/23 08:37:11;;;;;;;9.83;4.30;;;8.20;1.00;8.70;101604.00;;;;5020212;28;20464;-80
2022/02/23 08:39:40;;;;;;;17.70;4.23;;;8.30;1.00;8.80;101628.00;;;;5014081;28;20468;-81
2022/02/23 08:42:12;;;;;;;10.57;4.47;;;8.30;1.00;8.80;101627.00;;;;5031349;28;20562;-80
2022/02/23 08:44:42;;;;;;;11.30;4.60;;;8.30;1.00;8.70;101636.00;;;;5016138;28;20468;-80
2022/02/23 08:47:12;;;;;;;18.53;5.10;;;8.40;1.00;8.90;101645.00;;;;5014696;28;20478;-80
2022/02/23 08:49:40;;;;;;;16.97;4.70;;;8.40;1.00;8.90;101630.00;;;;5014561;28;20535;-78
2022/02/23 08:52:09;;;;;;;14.23;5.00;;;8.60;1.00;8.90;101635.00;;;;5017695;28;20479;-80
2022/02/23 08:54:38;;;;;;;13.67;4.60;;;8.30;1.00;9.00;101648.00;;;;5019042;28;20461;-78
2022/02/23 08:57:09;;;;;;;16.20;4.57;;;8.40;1.00;9.10;101637.00;;;;5015330;28;20466;-82
2022/02/23 08:59:37;;;;;;;10.70;4.27;;;8.50;1.00;9.00;101665.00;;;;5018124;28;20561;-79
2022/02/23 09:02:08;;;;;;;12.70;4.60;;;8.60;1.00;9.20;101605.00;;;;5015193;28;20473;-79
2022/02/23 09:04:36;;;;;;;9.00;5.03;;;8.70;1.00;9.20;101613.00;;;;5017553;28;20532;-84
2022/02/23 09:07:05;;;;;;;19.63;5.40;;;8.80;1.00;9.20;101612.00;;;;5018708;28;20450;-80
2022/02/23 09:09:34;;;;;;;16.57;4.33;;;8.70;1.00;9.20;101623.00;;;;5013542;28;21868;-80
2022/02/23 09:12:04;;;;;;;13.83;4.90;;;8.70;1.00;9.20;101633.00;;;;5013745;28;20828;-81
2022/02/23 09:14:33;;;;;;;12.00;5.10;;;8.70;1.00;9.30;101648.00;;;;5014569;28;20461;-76
2022/02/23 09:17:06;;;;;;;13.40;4.20;;;8.80;1.00;9.30;101655.00;;;;5029703;28;20461;-78
2022/02/23 09:19:35;;;;;;;11.47;4.00;;;8.80;1.00;9.30;101674.00;;;;5049494;28;20503;-80
2022/02/23 09:22:04;;;;;;;17.10;4.97;;;8.80;1.00;9.30;101642.00;;;;5050958;28;20480;-79
2022/02/23 09:24:32;;;;;;;15.40;6.07;;;8.90;1.00;9.40;101664.00;;;;5039742;28;20525;-81
2022/02/23 09:27:02;;;;;;;10.77;3.83;;;9.00;1.00;9.50;101655.00;;;;5019315;28;21940;-81
2022/02/23 09:29:34;;;;;;;13.97;4.10;;;9.10;1.00;9.60;101635.00;;;;5017889;28;20839;-81
2022/02/23 09:32:02;;;;;;;12.47;4.70;;;9.20;1.00;9.70;101642.00;;;;5017228;28;20478;-81
2022/02/23 09:34:33;;;;;;;16.20;3.70;;;9.30;1.00;9.60;101603.00;;;;5023838;28;20520;-81
2022/02/23 09:37:01;;;;;;;12.37;3.87;;;9.30;1.00;9.70;101647.00;;;;5024557;28;20479;-79
2022/02/23 09:39:30;;;;;;;12.77;4.50;;;9.60;1.00;9.80;101663.00;;;;5020747;28;20461;-77
2022/02/23 09:41:58;;;;;;;16.33;5.10;;;9.40;1.00;9.80;101639.00;;;;5028715;28;20491;-81
2022/02/23 09:44:29;;;;;;;15.77;3.90;;;9.50;1.00;9.90;101656.00;;;;5012938;28;20482;-80
2022/02/23 09:46:58;;;;;;;15.97;3.93;;;9.50;1.00;9.90;101648.00;;;;5021538;28;20820;-79
2022/02/23 09:49:27;;;;;;;15.37;3.80;;;9.50;1.00;9.80;101663.00;;;;5017275;28;20480;-81
2022/02/23 09:51:57;;;;;;;13.67;4.03;;;9.80;1.00;10.00;101642.00;;;;5025934;28;20478;-81
2022/02/23 09:54:25;;;;;;;11.03;3.97;;;9.60;1.00;10.00;101644.00;;;;5019266;28;20457;-80
2022/02/23 09:56:54;;;;;;;10.63;3.83;;;9.60;1.00;10.10;101640.00;;;;5025398;28;20552;-80
2022/02/23 09:59:24;;;;;;;10.53;2.90;;;9.70;1.00;10.20;101647.00;;;;5030209;28;20484;-79
2022/02/23 10:01:55;;;;;;;9.20;3.47;;;9.80;1.00;10.10;101632.00;;;;5028527;28;21053;-83
2022/02/23 10:04:25;;;;;;;11.10;2.80;;;9.70;1.00;10.10;101627.00;;;;5035993;28;20457;-81
2022/02/23 10:06:55;;;;;;;13.10;3.50;;;9.60;1.00;10.10;101617.00;;;;5019147;28;20508;-80
2022/02/23 10:09:25;;;;;;;7.40;3.30;;;9.60;1.00;10.20;101634.00;;;;5022727;28;20492;-77
2022/02/23 10:11:54;;;;;;;10.23;3.90;;;9.70;1.00;10.30;101639.00;;;;5029769;28;20473;-79
2022/02/23 10:14:22;;;;;;;7.50;3.07;;;9.90;1.00;10.50;101647.00;;;;5023005;28;20500;-80
2022/02/23 10:16:52;;;;;;;12.50;4.30;;;10.10;1.00;10.60;101624.00;;;;5025458;28;21161;-80
2022/02/23 10:19:23;;;;;;;9.30;3.10;;;10.20;1.00;10.50;101646.00;;;;5024883;28;20488;-81
2022/02/23 10:21:55;;;;;;;8.97;2.73;;;10.10;1.00;10.60;101641.00;;;;5040600;28;20773;-79
2022/02/23 10:24:33;;;;;;;9.17;2.80;;;10.10;1.00;10.70;101646.00;;;;5029846;28;20472;-80
2022/02/23 10:27:08;;;;;;;13.60;2.77;;;10.30;1.00;10.70;101658.00;;;;5036254;28;20467;-81
2022/02/23 10:29:39;;;;;;;13.20;3.17;;;10.20;1.00;10.60;101668.00;;;;5029159;28;20560;-84
2022/02/23 10:32:10;;;;;;;8.73;3.07;;;10.20;1.00;10.70;101640.00;;;;5042614;28;20501;-81
2022/02/23 10:34:41;;;;;;;7.83;3.20;;;10.30;1.00;10.90;101660.00;;;;5041758;28;20462;-80
2022/02/23 10:37:19;;;;;;;12.30;3.20;;;10.00;1.00;10.90;101643.00;;;;5030374;28;20468;-79
2022/02/23 10:39:50;;;;;;;13.70;3.37;;;10.50;1.00;10.90;101614.00;;;;5029246;28;20460;-79
2022/02/23 10:42:26;;;;;;;8.43;2.80;;;10.40;1.00;11.00;101644.00;;;;5032667;28;20616;-79
2022/02/23 10:44:56;;;;;;;7.30;3.00;;;10.50;1.00;11.10;101641.00;;;;5032238;28;20465;-79
2022/02/23 10:47:29;;;;;;;8.63;3.20;;;10.70;1.00;11.30;101622.00;;;;5034224;28;20493;-80
2022/02/23 10:50:07;;;;;;;18.07;3.27;;;10.90;1.00;11.30;101625.00;;;;5027677;28;20496;-81
2022/02/23 10:52:39;;;;;;;12.20;3.10;;;11.00;1.00;11.30;101648.00;;;;5032629;28;20594;-79
2022/02/23 10:55:22;;;;;;;11.97;3.30;;;11.00;1.00;11.40;101641.00;;;;5028954;28;20462;-80
2022/02/23 10:57:54;;;;;;;11.73;2.63;;;11.10;1.00;11.40;101620.00;;;;5020568;28;20466;-80
2022/02/23 11:00:25;;;;;;;7.93;2.73;;;11.10;1.00;11.50;101625.00;;;;5021977;28;20468;-80
2022/02/23 11:02:55;;;;;;;12.23;3.00;;;11.10;1.00;11.40;101625.00;;;;5021074;28;20567;-77
2022/02/23 11:05:27;;;;;;;10.80;3.40;;;11.10;1.00;11.70;101641.00;;;;5023997;28;20453;-79
2022/02/23 11:07:57;;;;;;;7.73;2.93;;;11.30;1.00;11.70;101635.00;;;;5016075;28;20524;-80
2022/02/23 11:10:27;;;;;;;7.23;2.20;;;11.30;1.00;11.70;101626.00;;;;5012984;28;20992;-78
2022/02/23 11:12:58;;;;;;;8.30;2.37;;;11.30;1.00;11.70;101637.00;;;;5014519;28;20468;-78
2022/02/23 11:15:31;;;;;;;13.23;3.00;;;11.30;1.00;11.70;101614.00;;;;5029763;28;20457;-77